Time;durP1;ratioP1;P1;durP2;ratioP2;P2;SDS_P1;SDS_P2;PMS_P1;PMS_P2;Temp;Humidity;BMP_temperature;BMP_pressure;BME280_temperature;BME280_humidity;BME280_pressure;Samples;Min_cycle;Max_cycle;Signal;HPM_P1;HPM_P2
2023/06/12 00:00:21;;;;;;;2.73;2.53;;;19.80;53.00;;;;;;5104117;27;21241;-74
2023/06/12 00:02:48;;;;;;;4.00;3.40;;;19.80;53.10;;;;;;5112950;27;20630;-74
2023/06/12 00:05:19;;;;;;;3.10;2.63;;;19.80;53.00;;;;;;5103515;27;21206;-74
2023/06/12 00:07:47;;;;;;;3.00;2.73;;;19.80;53.00;;;;;;5119929;27;20612;-74
2023/06/12 00:10:14;;;;;;;2.20;2.10;;;19.70;53.20;;;;;;5111433;27;21319;-74
2023/06/12 00:12:41;;;;;;;4.07;2.30;;;19.70;53.10;;;;;;5111323;27;20937;-74
2023/06/12 00:15:10;;;;;;;4.07;2.87;;;19.70;53.30;;;;;;5107682;27;20641;-74
2023/06/12 00:17:37;;;;;;;3.77;3.47;;;19.70;53.20;;;;;;5116059;27;20627;-74
2023/06/12 00:20:05;;;;;;;3.77;3.30;;;19.70;53.10;;;;;;5108854;27;20986;-74
2023/06/12 00:22:32;;;;;;;4.67;3.10;;;19.70;53.20;;;;;;5117223;27;20626;-74
2023/06/12 00:24:59;;;;;;;4.47;3.23;;;19.70;53.40;;;;;;5116540;27;20616;-74
2023/06/12 00:27:26;;;;;;;4.07;3.20;;;19.70;53.50;;;;;;5109689;27;20719;-74
2023/06/12 00:29:52;;;;;;;3.00;2.60;;;19.70;53.30;;;;;;5112426;27;20627;-74
2023/06/12 00:32:21;;;;;;;3.37;2.97;;;19.60;53.40;;;;;;5115382;27;20677;-74
2023/06/12 00:34:47;;;;;;;3.30;3.00;;;19.60;53.40;;;;;;5108490;27;20628;-74
2023/06/12 00:37:17;;;;;;;3.10;2.80;;;19.50;53.50;;;;;;5116172;27;21244;-74
2023/06/12 00:39:44;;;;;;;2.87;2.67;;;19.50;53.70;;;;;;5115844;27;20786;-74
2023/06/12 00:42:11;;;;;;;3.07;2.77;;;19.50;53.80;;;;;;5121097;27;20647;-74
2023/06/12 00:44:38;;;;;;;3.37;2.80;;;19.50;53.80;;;;;;5119020;27;20980;-74
2023/06/12 00:47:05;;;;;;;3.23;2.60;;;19.40;54.10;;;;;;5120581;27;20740;-74
2023/06/12 00:49:33;;;;;;;3.30;2.63;;;19.40;53.80;;;;;;5107543;27;20620;-74
2023/06/12 00:52:01;;;;;;;3.40;3.10;;;19.50;54.10;;;;;;5116167;27;20666;-74
2023/06/12 00:54:29;;;;;;;5.03;2.57;;;19.40;53.90;;;;;;5121131;27;20619;-74
2023/06/12 00:56:57;;;;;;;3.67;3.10;;;19.30;54.20;;;;;;5117539;27;20644;-74
2023/06/12 00:59:24;;;;;;;3.80;2.80;;;19.30;54.40;;;;;;5116264;27;20615;-74
2023/06/12 01:01:51;;;;;;;2.30;2.10;;;19.20;54.60;;;;;;5119150;27;20706;-74
2023/06/12 01:04:18;;;;;;;3.03;2.30;;;19.10;54.90;;;;;;5102363;27;20650;-74
2023/06/12 01:06:53;;;;;;;2.50;2.30;;;19.10;54.80;;;;;;5113022;27;20647;-74
2023/06/12 01:09:33;;;;;;;3.43;2.77;;;19.20;54.60;;;;;;5113735;27;20623;-74
2023/06/12 01:12:01;;;;;;;3.80;3.40;;;19.20;54.90;;;;;;5101711;27;20648;-74
2023/06/12 01:14:30;;;;;;;2.67;2.43;;;19.10;55.20;;;;;;5105362;27;20623;-74
2023/06/12 01:17:01;;;;;;;2.83;2.63;;;19.10;54.80;;;;;;5113158;27;20712;-74
2023/06/12 01:19:30;;;;;;;3.00;2.70;;;19.20;55.20;;;;;;5107500;27;20664;-74
2023/06/12 01:22:03;;;;;;;3.37;3.07;;;19.10;55.20;;;;;;5113371;27;20671;-74
2023/06/12 01:25:00;;;;;;;2.93;2.57;;;19.00;55.40;;;;;;5111259;27;20651;-74
2023/06/12 01:27:47;;;;;;;3.10;2.43;;;19.00;55.50;;;;;;5114433;27;21192;-74
2023/06/12 01:30:54;;;;;;;3.60;3.30;;;19.00;55.70;;;;;;5109192;27;20640;-74
2023/06/12 01:33:33;;;;;;;3.33;2.60;;;18.80;55.70;;;;;;5072994;27;20638;-74
2023/06/12 01:36:01;;;;;;;4.70;2.90;;;18.90;56.10;;;;;;5098473;27;21242;-74
2023/06/12 01:38:30;;;;;;;2.43;2.23;;;19.00;56.10;;;;;;5111030;27;20676;-74
2023/06/12 01:41:00;;;;;;;2.93;2.63;;;18.80;56.00;;;;;;5117129;27;21262;-74
2023/06/12 01:43:28;;;;;;;3.80;1.90;;;18.90;56.10;;;;;;5112759;27;20623;-74
2023/06/12 01:45:55;;;;;;;2.50;2.30;;;18.80;56.10;;;;;;5110614;27;20657;-74
2023/06/12 01:48:25;;;;;;;2.97;2.77;;;18.80;56.70;;;;;;5114615;27;20995;-74
2023/06/12 01:50:53;;;;;;;3.53;2.77;;;18.80;56.50;;;;;;5111197;28;20685;-74
2023/06/12 01:53:20;;;;;;;3.40;2.83;;;18.70;57.40;;;;;;5110829;28;20674;-74
2023/06/12 01:55:49;;;;;;;3.50;3.20;;;18.60;57.20;;;;;;5119264;27;20655;-74
2023/06/12 01:58:17;;;;;;;4.00;3.40;;;18.40;58.60;;;;;;5119639;27;20688;-74
2023/06/12 02:00:46;;;;;;;3.00;2.80;;;18.30;58.60;;;;;;5113093;28;20726;-74
2023/06/12 02:03:14;;;;;;;5.40;2.27;;;18.10;59.10;;;;;;5107685;28;20988;-74
2023/06/12 02:05:42;;;;;;;3.50;3.00;;;17.90;58.90;;;;;;5115151;27;20665;-74
2023/06/12 02:08:10;;;;;;;3.47;2.83;;;17.80;59.20;;;;;;5110603;27;20631;-74
2023/06/12 02:10:36;;;;;;;3.40;2.90;;;17.60;60.00;;;;;;5117311;28;20658;-74
2023/06/12 02:13:03;;;;;;;3.17;2.87;;;17.60;59.80;;;;;;5112029;28;20659;-74
2023/06/12 02:15:30;;;;;;;3.30;3.00;;;17.60;60.40;;;;;;5115331;28;20659;-74
2023/06/12 02:17:57;;;;;;;2.63;2.43;;;17.50;60.90;;;;;;5118231;28;20639;-74
2023/06/12 02:20:24;;;;;;;6.90;3.33;;;17.60;61.00;;;;;;5116938;28;20671;-74
2023/06/12 02:22:52;;;;;;;3.00;2.77;;;17.60;60.80;;;;;;5103481;28;20625;-74
2023/06/12 02:25:20;;;;;;;3.10;2.80;;;17.60;61.10;;;;;;5114981;28;21006;-74
2023/06/12 02:27:47;;;;;;;2.60;2.40;;;17.70;60.90;;;;;;5107056;28;20680;-74
2023/06/12 02:30:15;;;;;;;5.43;3.63;;;17.60;61.20;;;;;;5110854;28;20681;-74
2023/06/12 02:32:43;;;;;;;2.80;2.60;;;17.50;61.50;;;;;;5107451;28;20622;-74
2023/06/12 02:35:10;;;;;;;3.60;2.80;;;17.30;62.70;;;;;;5118793;28;20642;-74
2023/06/12 02:37:38;;;;;;;3.40;3.10;;;17.20;63.30;;;;;;5112574;28;20739;-74
2023/06/12 02:40:08;;;;;;;3.37;3.07;;;17.30;62.90;;;;;;5107620;27;21209;-74
2023/06/12 02:42:36;;;;;;;5.37;2.67;;;17.20;63.20;;;;;;5117319;27;20746;-74
2023/06/12 02:45:05;;;;;;;3.03;2.73;;;17.10;64.10;;;;;;5116020;28;20675;-74
2023/06/12 02:47:32;;;;;;;2.90;2.60;;;17.20;64.20;;;;;;5121016;27;20637;-74
2023/06/12 02:50:00;;;;;;;3.33;2.50;;;17.30;63.20;;;;;;5105659;27;20722;-74
2023/06/12 02:52:27;;;;;;;5.53;2.73;;;17.50;63.30;;;;;;5110965;28;20684;-74
2023/06/12 02:54:55;;;;;;;2.80;2.60;;;17.50;63.00;;;;;;5124059;28;21262;-74
2023/06/12 02:57:24;;;;;;;9.60;3.50;;;17.40;63.30;;;;;;5116744;27;20651;-74
2023/06/12 02:59:53;;;;;;;2.97;2.73;;;17.30;64.50;;;;;;5107383;27;20685;-74
2023/06/12 03:02:20;;;;;;;3.43;2.80;;;17.20;65.00;;;;;;5120959;27;20749;-74
2023/06/12 03:04:48;;;;;;;3.60;2.27;;;17.10;65.30;;;;;;5112011;27;21224;-74
2023/06/12 03:07:16;;;;;;;2.17;1.90;;;17.00;66.00;;;;;;5122632;27;21059;-74
2023/06/12 03:09:44;;;;;;;3.90;2.63;;;17.00;65.70;;;;;;5119483;27;20680;-74
2023/06/12 03:12:12;;;;;;;2.93;2.43;;;17.10;64.80;;;;;;5120923;27;20652;-74
2023/06/12 03:14:42;;;;;;;3.40;2.47;;;17.10;65.60;;;;;;5121226;27;21410;-74
2023/06/12 03:17:09;;;;;;;3.60;2.70;;;17.40;65.10;;;;;;5121094;27;20740;-74
2023/06/12 03:19:36;;;;;;;3.13;2.53;;;17.40;65.00;;;;;;5116389;27;20622;-74
2023/06/12 03:22:04;;;;;;;3.23;2.37;;;17.40;64.70;;;;;;5123338;27;20673;-74
2023/06/12 03:24:31;;;;;;;3.43;2.37;;;17.40;64.90;;;;;;5118648;27;21073;-74
2023/06/12 03:26:58;;;;;;;5.27;2.73;;;17.20;65.50;;;;;;5117092;27;20657;-74
2023/06/12 03:29:25;;;;;;;3.53;3.03;;;17.00;66.90;;;;;;5118943;27;20705;-74
2023/06/12 03:31:54;;;;;;;3.20;2.90;;;16.90;67.30;;;;;;5101618;27;21019;-74
2023/06/12 03:34:22;;;;;;;3.10;2.77;;;16.80;67.70;;;;;;5115987;27;20641;-74
2023/06/12 03:36:49;;;;;;;2.93;2.47;;;16.90;68.20;;;;;;5115725;27;20647;-74
2023/06/12 03:39:16;;;;;;;2.37;2.17;;;16.70;68.80;;;;;;5119422;27;20651;-74
2023/06/12 03:41:52;;;;;;;2.67;2.47;;;16.70;68.50;;;;;;5120826;27;21265;-74
2023/06/12 03:44:18;;;;;;;2.97;2.70;;;16.70;69.30;;;;;;5122207;27;20967;-74
2023/06/12 03:46:45;;;;;;;3.27;2.77;;;16.70;69.20;;;;;;5113923;27;21223;-74
2023/06/12 03:49:13;;;;;;;3.63;2.90;;;16.70;69.00;;;;;;5111745;27;20631;-74
2023/06/12 03:51:40;;;;;;;4.20;2.70;;;16.60;70.00;;;;;;5117003;27;20752;-74
2023/06/12 03:54:07;;;;;;;3.00;2.70;;;16.50;70.50;;;;;;5121598;27;20627;-74
2023/06/12 03:56:34;;;;;;;2.80;2.60;;;16.50;71.90;;;;;;5119007;27;21252;-74
2023/06/12 03:59:01;;;;;;;3.57;3.23;;;16.50;72.50;;;;;;5117631;27;20627;-74
2023/06/12 04:01:28;;;;;;;2.80;2.50;;;16.50;72.30;;;;;;5113405;27;20669;-74
2023/06/12 04:03:55;;;;;;;2.93;2.60;;;16.50;71.90;;;;;;5121795;27;21445;-74
2023/06/12 04:06:24;;;;;;;3.70;2.50;;;16.50;72.30;;;;;;5120434;27;20653;-74
2023/06/12 04:08:52;;;;;;;3.60;3.10;;;16.50;72.60;;;;;;5120455;27;21216;-74
2023/06/12 04:11:18;;;;;;;3.33;2.97;;;16.50;72.50;;;;;;5116524;27;20648;-74
2023/06/12 04:13:45;;;;;;;3.70;2.60;;;16.40;73.10;;;;;;5121922;27;20607;-74
2023/06/12 04:16:13;;;;;;;3.10;2.77;;;16.40;74.60;;;;;;5119154;27;21240;-74
2023/06/12 04:18:40;;;;;;;2.70;2.47;;;16.50;74.30;;;;;;5115255;27;21162;-74
2023/06/12 04:21:07;;;;;;;4.43;3.53;;;16.50;74.60;;;;;;5120492;27;20679;-74
2023/06/12 04:23:41;;;;;;;3.83;3.00;;;16.70;73.50;;;;;;5117405;27;20629;-74
2023/06/12 04:26:08;;;;;;;3.67;2.50;;;17.00;73.40;;;;;;5118076;27;21313;-74
2023/06/12 04:28:36;;;;;;;3.97;2.90;;;16.90;73.40;;;;;;5117669;27;20629;-74
2023/06/12 04:31:03;;;;;;;3.30;3.00;;;17.00;73.90;;;;;;5113688;27;21150;-74
2023/06/12 04:33:32;;;;;;;3.30;3.00;;;17.00;74.00;;;;;;5103504;27;20631;-74
2023/06/12 04:36:00;;;;;;;2.90;2.70;;;17.10;73.70;;;;;;5121155;27;20737;-74
2023/06/12 04:38:27;;;;;;;3.27;2.90;;;17.10;73.20;;;;;;5111233;27;21129;-74
2023/06/12 04:40:55;;;;;;;3.60;2.43;;;17.10;74.60;;;;;;5119928;27;20650;-73
2023/06/12 04:43:23;;;;;;;2.87;2.63;;;17.10;73.60;;;;;;5116773;27;20622;-74
2023/06/12 04:45:51;;;;;;;4.37;3.20;;;17.20;75.00;;;;;;5119320;27;21081;-73
2023/06/12 04:48:18;;;;;;;2.37;2.17;;;17.20;75.30;;;;;;5120802;27;20614;-73
2023/06/12 04:50:47;;;;;;;3.83;3.07;;;17.30;74.20;;;;;;5118297;27;21052;-74
2023/06/12 04:53:17;;;;;;;3.67;3.00;;;17.40;74.20;;;;;;5114598;27;20635;-74
2023/06/12 04:55:50;;;;;;;3.73;3.00;;;17.50;73.00;;;;;;5115832;27;20658;-73
2023/06/12 04:58:18;;;;;;;2.90;2.60;;;17.50;74.70;;;;;;5120091;27;21197;-73
2023/06/12 05:00:47;;;;;;;3.20;2.90;;;17.40;75.60;;;;;;5117651;27;20649;-75
2023/06/12 05:03:14;;;;;;;2.73;2.50;;;17.40;77.00;;;;;;5108858;27;20612;-75
2023/06/12 05:05:41;;;;;;;3.20;3.00;;;17.40;79.20;;;;;;5096816;27;20725;-75
2023/06/12 05:08:08;;;;;;;2.93;2.43;;;17.50;79.70;;;;;;5114762;27;21201;-73
2023/06/12 05:10:35;;;;;;;4.00;3.60;;;17.70;77.90;;;;;;5113437;27;21298;-74
2023/06/12 05:13:02;;;;;;;2.93;2.73;;;17.90;76.70;;;;;;5116196;27;20624;-75
2023/06/12 05:15:31;;;;;;;3.50;2.50;;;18.10;74.10;;;;;;5118960;27;20755;-74
2023/06/12 05:17:57;;;;;;;3.77;3.47;;;18.30;72.10;;;;;;5111604;27;20720;-75
2023/06/12 05:20:25;;;;;;;3.93;3.23;;;18.60;71.80;;;;;;5119050;27;20665;-74
2023/06/12 05:22:52;;;;;;;2.93;2.67;;;18.70;70.60;;;;;;5114217;27;20662;-75
2023/06/12 05:25:19;;;;;;;4.13;3.30;;;18.80;70.80;;;;;;5109901;27;20726;-75
2023/06/12 05:27:46;;;;;;;3.43;3.10;;;18.90;70.00;;;;;;5112271;27;20722;-75
2023/06/12 05:30:13;;;;;;;3.50;2.87;;;19.10;69.40;;;;;;5118378;27;20619;-75
2023/06/12 05:32:41;;;;;;;4.20;3.80;;;19.20;71.30;;;;;;5124644;27;20633;-75
2023/06/12 05:35:09;;;;;;;4.27;3.50;;;19.40;68.90;;;;;;5122242;27;20623;-75
2023/06/12 05:37:35;;;;;;;3.90;3.57;;;19.60;68.00;;;;;;5120083;27;20721;-75
2023/06/12 05:40:05;;;;;;;3.43;3.13;;;19.60;67.70;;;;;;5103457;27;20615;-75
2023/06/12 05:42:32;;;;;;;4.37;3.70;;;19.50;68.00;;;;;;5120998;27;20663;-75
2023/06/12 05:44:58;;;;;;;5.40;4.57;;;19.50;68.40;;;;;;5114344;27;20740;-75
2023/06/12 05:47:25;;;;;;;5.13;4.27;;;19.80;68.20;;;;;;5115734;27;20643;-75
2023/06/12 05:49:53;;;;;;;4.60;4.17;;;19.70;67.00;;;;;;5116542;27;20624;-75
2023/06/12 05:52:20;;;;;;;3.60;3.30;;;19.70;67.20;;;;;;5115553;27;20996;-76
2023/06/12 05:54:47;;;;;;;5.27;3.57;;;19.80;68.00;;;;;;5114040;27;20224;-76
2023/06/12 05:57:14;;;;;;;4.27;3.67;;;20.00;67.30;;;;;;5108322;27;20644;-76
2023/06/12 05:59:43;;;;;;;3.70;3.30;;;20.00;67.00;;;;;;5112877;27;21034;-75
2023/06/12 06:02:10;;;;;;;4.30;3.30;;;20.00;66.00;;;;;;5107451;28;20664;-76
2023/06/12 06:04:36;;;;;;;6.30;3.53;;;20.20;66.80;;;;;;5114652;28;20633;-75
2023/06/12 06:07:07;;;;;;;3.70;3.30;;;20.20;65.70;;;;;;5109448;28;20671;-76
2023/06/12 06:09:33;;;;;;;4.50;3.20;;;20.30;65.70;;;;;;5115595;28;20612;-76
2023/06/12 06:12:00;;;;;;;4.10;3.30;;;20.40;65.90;;;;;;5116029;28;20646;-75
2023/06/12 06:14:27;;;;;;;4.33;3.93;;;20.40;65.40;;;;;;5099068;28;20722;-76
2023/06/12 06:16:54;;;;;;;3.17;2.87;;;20.40;64.30;;;;;;5119502;28;20683;-75
2023/06/12 06:19:21;;;;;;;3.40;3.10;;;20.40;64.80;;;;;;5116126;28;20619;-75
2023/06/12 06:21:48;;;;;;;3.63;3.33;;;20.40;65.20;;;;;;5101738;28;20690;-75
2023/06/12 06:24:16;;;;;;;3.60;3.27;;;20.50;64.90;;;;;;5107987;28;20633;-76
2023/06/12 06:26:43;;;;;;;4.57;4.17;;;20.50;64.70;;;;;;5112820;28;20678;-76
2023/06/12 06:29:09;;;;;;;4.90;4.50;;;20.70;64.50;;;;;;5115165;27;20622;-75
2023/06/12 06:31:36;;;;;;;3.37;3.07;;;20.70;64.90;;;;;;5113480;27;20666;-75
2023/06/12 06:34:03;;;;;;;4.97;3.93;;;20.90;64.40;;;;;;5120895;27;20628;-76
2023/06/12 06:36:30;;;;;;;4.77;3.17;;;20.90;64.00;;;;;;5120142;27;21249;-75
2023/06/12 06:38:56;;;;;;;4.30;3.63;;;21.00;63.60;;;;;;5119030;27;20982;-76
2023/06/12 06:41:26;;;;;;;5.17;4.37;;;21.00;63.30;;;;;;5121041;27;21040;-76
2023/06/12 06:43:53;;;;;;;4.10;3.47;;;21.00;62.90;;;;;;5112195;27;20626;-76
2023/06/12 06:46:20;;;;;;;7.30;3.83;;;21.00;63.50;;;;;;5121708;27;20648;-76
2023/06/12 06:48:47;;;;;;;3.83;3.53;;;21.10;63.80;;;;;;5121199;27;20613;-76
2023/06/12 06:51:13;;;;;;;3.30;3.00;;;21.10;63.00;;;;;;5118510;27;20646;-76
2023/06/12 06:53:40;;;;;;;3.93;3.63;;;21.30;63.60;;;;;;5117069;27;20620;-76
2023/06/12 06:56:07;;;;;;;3.83;3.53;;;21.50;63.40;;;;;;5114223;27;20649;-75
2023/06/12 06:58:35;;;;;;;4.10;3.10;;;21.60;63.20;;;;;;5119687;27;20724;-76
2023/06/12 07:01:02;;;;;;;4.90;4.40;;;21.50;62.10;;;;;;5119815;27;20648;-75
2023/06/12 07:03:29;;;;;;;6.03;4.03;;;21.30;62.30;;;;;;5123058;27;21304;-76
2023/06/12 07:05:56;;;;;;;5.63;4.40;;;21.40;61.50;;;;;;5121401;27;20650;-76
2023/06/12 07:08:22;;;;;;;4.13;3.77;;;21.70;62.20;;;;;;5117468;27;20981;-75
2023/06/12 07:10:49;;;;;;;3.43;3.20;;;21.60;60.20;;;;;;5118773;27;21003;-76
2023/06/12 07:13:16;;;;;;;4.67;3.80;;;21.60;60.10;;;;;;5118780;27;20619;-75
2023/06/12 07:15:44;;;;;;;3.77;3.40;;;21.60;60.50;;;;;;5118596;27;20655;-74
2023/06/12 07:18:13;;;;;;;3.73;3.40;;;21.80;60.90;;;;;;5112702;27;20625;-74
2023/06/12 07:20:40;;;;;;;3.47;3.17;;;22.00;60.70;;;;;;5106485;27;20639;-74
2023/06/12 07:23:07;;;;;;;3.50;3.20;;;22.20;60.00;;;;;;5105226;27;20666;-74
2023/06/12 07:25:34;;;;;;;4.50;4.10;;;22.10;59.50;;;;;;5114187;27;20647;-75
2023/06/12 07:28:01;;;;;;;4.47;4.07;;;22.10;59.70;;;;;;5109263;27;21060;-75
2023/06/12 07:30:28;;;;;;;4.67;4.13;;;22.20;59.80;;;;;;5105758;27;21709;-76
2023/06/12 07:32:56;;;;;;;6.40;4.37;;;22.50;59.10;;;;;;5107337;27;20615;-76
2023/06/12 07:35:23;;;;;;;4.90;4.30;;;22.60;58.80;;;;;;5119512;27;20656;-75
2023/06/12 07:37:49;;;;;;;4.17;3.77;;;22.60;59.10;;;;;;5121974;27;21070;-75
2023/06/12 07:40:16;;;;;;;4.13;3.70;;;22.60;59.10;;;;;;5121171;27;20723;-75
2023/06/12 07:42:44;;;;;;;4.63;4.23;;;22.70;58.50;;;;;;5117081;27;20684;-73
2023/06/12 07:45:11;;;;;;;4.53;4.13;;;22.70;58.60;;;;;;5118597;27;21006;-76
2023/06/12 07:47:37;;;;;;;4.27;3.67;;;22.80;58.90;;;;;;5119915;27;20630;-72
2023/06/12 07:50:07;;;;;;;5.20;4.37;;;22.70;58.50;;;;;;5121139;27;20615;-73
2023/06/12 07:52:34;;;;;;;3.60;3.30;;;22.90;58.40;;;;;;5111463;27;21046;-73
2023/06/12 07:55:01;;;;;;;4.10;3.70;;;22.90;58.40;;;;;;5114196;27;20665;-73
2023/06/12 07:57:28;;;;;;;4.23;3.83;;;23.00;57.90;;;;;;5120593;27;20650;-73
2023/06/12 07:59:54;;;;;;;4.13;3.77;;;23.10;57.90;;;;;;5120621;27;21261;-73
2023/06/12 08:02:21;;;;;;;4.00;3.60;;;23.10;58.00;;;;;;5116481;27;20675;-73
2023/06/12 08:04:48;;;;;;;4.20;3.80;;;23.10;57.20;;;;;;5126660;27;21171;-73
2023/06/12 08:07:17;;;;;;;5.50;4.50;;;23.20;57.20;;;;;;5113656;27;20653;-74
2023/06/12 08:09:44;;;;;;;5.00;4.37;;;23.20;57.30;;;;;;5120753;27;20639;-73
2023/06/12 08:12:11;;;;;;;4.50;4.10;;;23.40;57.70;;;;;;5119687;27;20707;-74
2023/06/12 08:14:39;;;;;;;3.93;2.80;;;23.70;57.20;;;;;;5122368;27;21151;-73
2023/06/12 08:17:06;;;;;;;3.90;3.60;;;23.80;56.50;;;;;;5106571;27;20652;-73
2023/06/12 08:19:34;;;;;;;9.63;4.10;;;23.90;54.70;;;;;;5118573;27;20624;-73
2023/06/12 08:22:01;;;;;;;4.17;3.83;;;23.80;54.20;;;;;;5120754;27;20648;-73
2023/06/12 08:24:30;;;;;;;7.20;4.20;;;23.80;54.60;;;;;;5114512;27;20620;-74
2023/06/12 08:26:58;;;;;;;3.40;3.10;;;24.00;55.40;;;;;;5114169;27;20678;-73
2023/06/12 08:29:24;;;;;;;4.57;4.27;;;24.00;54.20;;;;;;5117607;27;20623;-73
2023/06/12 08:31:51;;;;;;;4.30;4.00;;;24.00;54.00;;;;;;5120362;27;21019;-73
2023/06/12 08:34:18;;;;;;;4.07;3.67;;;23.90;53.00;;;;;;5119851;27;20731;-73
2023/06/12 08:36:45;;;;;;;3.80;3.50;;;24.00;52.10;;;;;;5116356;27;20650;-73
2023/06/12 08:39:13;;;;;;;4.10;3.57;;;24.00;52.30;;;;;;5116884;27;20613;-73
2023/06/12 08:41:52;;;;;;;3.17;2.93;;;24.20;51.50;;;;;;5117935;27;20652;-73
2023/06/12 08:44:21;;;;;;;5.90;4.97;;;24.20;51.80;;;;;;5120200;27;21026;-74
2023/06/12 08:46:50;;;;;;;4.43;3.63;;;24.40;52.10;;;;;;5117707;27;20641;-74
2023/06/12 08:49:17;;;;;;;3.80;3.50;;;24.60;52.40;;;;;;5116348;27;20608;-73
2023/06/12 08:51:44;;;;;;;3.90;3.47;;;24.60;51.90;;;;;;5119200;27;20648;-74
2023/06/12 08:54:12;;;;;;;4.70;3.53;;;24.70;52.40;;;;;;5120461;27;21270;-73
2023/06/12 08:56:45;;;;;;;4.23;3.77;;;25.00;51.50;;;;;;5120499;27;20643;-73
2023/06/12 08:59:12;;;;;;;4.90;4.17;;;25.00;51.20;;;;;;5118355;27;20630;-73
2023/06/12 09:01:40;;;;;;;6.03;3.53;;;25.00;51.00;;;;;;5120112;27;20750;-72
2023/06/12 09:04:10;;;;;;;4.10;3.70;;;25.00;51.10;;;;;;5117435;27;20663;-73
2023/06/12 09:06:38;;;;;;;4.53;4.13;;;25.20;51.80;;;;;;5117104;27;21164;-74
2023/06/12 09:09:05;;;;;;;4.63;4.20;;;25.30;51.70;;;;;;5118173;27;20656;-78
2023/06/12 09:11:36;;;;;;;6.60;5.20;;;25.30;51.50;;;;;;5120285;27;20647;-75
2023/06/12 09:14:04;;;;;;;5.53;4.60;;;25.50;51.10;;;;;;5119157;27;20619;-75
2023/06/12 09:16:32;;;;;;;3.90;3.70;;;25.80;52.20;;;;;;5116114;27;20697;-75
2023/06/12 09:18:59;;;;;;;3.70;3.40;;;25.70;51.30;;;;;;5115354;27;20632;-75
2023/06/12 09:21:26;;;;;;;3.90;3.50;;;25.60;51.80;;;;;;5120317;27;21119;-75
2023/06/12 09:23:55;;;;;;;3.83;3.50;;;25.80;51.60;;;;;;5120069;27;20659;-75
2023/06/12 09:26:22;;;;;;;4.63;4.23;;;25.60;50.60;;;;;;5118299;27;20639;-75
2023/06/12 09:28:51;;;;;;;4.53;4.10;;;25.40;50.60;;;;;;5115846;27;20639;-75
2023/06/12 09:31:20;;;;;;;4.70;4.13;;;25.20;50.20;;;;;;5116862;27;20664;-75
2023/06/12 09:33:47;;;;;;;4.77;4.10;;;25.30;49.10;;;;;;5119977;27;20626;-75
2023/06/12 09:36:14;;;;;;;3.30;3.00;;;25.40;48.90;;;;;;5120049;27;20754;-75
2023/06/12 09:38:41;;;;;;;5.00;4.50;;;25.70;49.80;;;;;;5117341;27;20619;-75
2023/06/12 09:41:10;;;;;;;4.97;3.67;;;25.80;49.50;;;;;;5115729;27;21329;-75
2023/06/12 09:43:37;;;;;;;4.07;3.70;;;25.90;48.80;;;;;;5116901;27;20816;-75
2023/06/12 09:46:06;;;;;;;3.60;3.30;;;26.00;48.00;;;;;;5119832;27;20734;-75
2023/06/12 09:48:35;;;;;;;4.80;4.30;;;26.10;49.00;;;;;;5119917;27;20623;-74
2023/06/12 09:51:06;;;;;;;4.10;3.70;;;26.30;46.80;;;;;;5115694;27;20722;-75
2023/06/12 09:53:37;;;;;;;4.10;3.70;;;25.80;47.30;;;;;;5116758;27;20612;-75
2023/06/12 09:56:06;;;;;;;4.17;3.77;;;25.60;47.40;;;;;;5107580;27;21018;-75
2023/06/12 09:58:36;;;;;;;3.63;3.33;;;25.40;48.40;;;;;;5116527;27;20616;-74
2023/06/12 10:01:05;;;;;;;4.37;3.60;;;25.40;48.80;;;;;;5118484;27;20643;-75
2023/06/12 10:03:38;;;;;;;4.47;4.00;;;25.40;48.90;;;;;;5119570;28;20762;-75
2023/06/12 10:06:07;;;;;;;4.50;4.00;;;25.40;48.40;;;;;;5116804;27;20704;-75
2023/06/12 10:08:35;;;;;;;8.03;3.97;;;25.70;48.30;;;;;;5115565;28;20710;-75
2023/06/12 10:11:03;;;;;;;5.20;4.70;;;25.80;47.90;;;;;;5116554;28;20648;-76
2023/06/12 10:13:32;;;;;;;4.60;4.20;;;26.10;48.40;;;;;;5118835;28;20719;-75
2023/06/12 10:15:59;;;;;;;6.20;4.20;;;26.10;47.40;;;;;;5119401;28;20700;-76
2023/06/12 10:18:28;;;;;;;3.40;3.10;;;26.00;47.60;;;;;;5116691;28;21168;-76
2023/06/12 10:20:57;;;;;;;4.20;3.80;;;26.10;48.90;;;;;;5114558;28;20644;-75
2023/06/12 10:23:24;;;;;;;3.90;3.53;;;26.30;48.10;;;;;;5118999;28;20671;-76
2023/06/12 10:25:52;;;;;;;4.33;4.00;;;26.60;48.40;;;;;;5119255;28;20635;-76
2023/06/12 10:28:19;;;;;;;5.23;4.73;;;26.90;46.60;;;;;;5118142;27;20622;-76
2023/06/12 10:31:12;;;;;;;4.30;3.90;;;26.90;46.20;;;;;;5115196;28;20682;-76
2023/06/12 10:33:39;;;;;;;3.70;3.40;;;27.10;46.00;;;;;;5107435;28;20622;-75
2023/06/12 10:36:14;;;;;;;3.97;3.57;;;27.20;47.60;;;;;;5116571;28;21136;-75
2023/06/12 10:38:48;;;;;;;4.90;3.93;;;27.30;46.20;;;;;;5119472;28;20620;-75
2023/06/12 10:41:31;;;;;;;4.53;3.50;;;27.50;45.50;;;;;;5116144;28;20655;-75
2023/06/12 10:43:58;;;;;;;4.17;3.77;;;27.50;44.10;;;;;;5108160;28;20672;-75
2023/06/12 10:46:42;;;;;;;3.97;3.67;;;27.60;45.60;;;;;;5115947;28;20665;-75
2023/06/12 10:49:08;;;;;;;4.97;4.53;;;27.60;44.80;;;;;;5109160;28;20980;-75
2023/06/12 10:51:40;;;;;;;4.23;3.30;;;27.30;45.10;;;;;;5116002;28;21024;-75
2023/06/12 10:54:15;;;;;;;4.57;4.17;;;27.30;44.30;;;;;;5119647;27;20731;-75
2023/06/12 10:56:55;;;;;;;4.17;3.87;;;27.30;44.40;;;;;;5110637;28;20729;-75
2023/06/12 10:59:30;;;;;;;4.77;4.30;;;27.50;44.40;;;;;;5118634;28;20613;-75
2023/06/12 11:01:57;;;;;;;3.63;3.37;;;28.00;44.30;;;;;;5116464;27;20652;-75
2023/06/12 11:04:24;;;;;;;4.10;3.70;;;28.10;43.80;;;;;;5115793;28;20668;-75
2023/06/12 11:06:53;;;;;;;4.70;4.30;;;28.40;44.00;;;;;;5114827;28;20650;-74
2023/06/12 11:09:19;;;;;;;4.23;3.83;;;28.60;44.20;;;;;;5118557;28;20621;-75
2023/06/12 11:11:50;;;;;;;3.80;3.50;;;28.70;43.80;;;;;;5119277;27;20760;-75
2023/06/12 11:14:17;;;;;;;4.00;3.70;;;28.80;43.80;;;;;;5115269;27;20620;-75
2023/06/12 11:16:45;;;;;;;4.00;3.70;;;28.60;43.10;;;;;;5115460;27;20750;-75
2023/06/12 11:19:12;;;;;;;4.53;4.10;;;28.90;42.80;;;;;;5119822;27;20634;-75
2023/06/12 11:21:40;;;;;;;4.97;3.97;;;29.00;42.00;;;;;;5121265;27;20682;-75
2023/06/12 11:24:10;;;;;;;6.97;4.50;;;29.20;41.80;;;;;;5122287;27;20701;-75
2023/06/12 11:26:37;;;;;;;4.23;3.83;;;29.20;42.00;;;;;;5119124;27;20647;-75
2023/06/12 11:29:13;;;;;;;4.50;4.10;;;29.40;42.40;;;;;;5118182;27;20616;-76
2023/06/12 11:31:40;;;;;;;4.20;3.90;;;29.60;42.20;;;;;;5110865;27;20669;-75
2023/06/12 11:34:07;;;;;;;5.80;3.57;;;29.90;41.60;;;;;;5118441;27;21026;-75
2023/06/12 11:36:34;;;;;;;4.43;4.03;;;30.00;40.70;;;;;;5121297;27;20661;-75
2023/06/12 11:39:05;;;;;;;3.90;3.60;;;30.20;40.60;;;;;;5121797;27;21020;-75
2023/06/12 11:41:36;;;;;;;4.80;4.40;;;30.40;40.80;;;;;;5118548;27;21048;-75
2023/06/12 11:44:03;;;;;;;3.83;3.53;;;30.60;39.50;;;;;;5122081;27;20675;-75
2023/06/12 11:46:31;;;;;;;3.83;3.53;;;30.90;38.90;;;;;;5120490;27;21003;-75
2023/06/12 11:49:02;;;;;;;4.37;3.97;;;31.30;39.10;;;;;;5118228;27;20724;-75
2023/06/12 11:51:29;;;;;;;3.67;3.37;;;31.60;38.30;;;;;;5118446;27;21291;-75
2023/06/12 11:53:59;;;;;;;4.67;4.00;;;31.80;38.80;;;;;;5121702;27;20651;-75
2023/06/12 11:56:26;;;;;;;4.10;3.73;;;32.40;37.60;;;;;;5121712;27;20657;-75
2023/06/12 11:58:56;;;;;;;4.03;3.73;;;32.70;37.50;;;;;;5118446;27;20622;-75
2023/06/12 12:01:23;;;;;;;3.50;3.30;;;33.00;37.80;;;;;;5121770;27;20639;-76
2023/06/12 12:03:51;;;;;;;4.20;3.83;;;33.50;37.20;;;;;;5121163;27;21107;-77
2023/06/12 12:06:18;;;;;;;3.40;3.20;;;34.20;35.10;;;;;;5118423;27;20636;-76
2023/06/12 12:08:47;;;;;;;4.00;3.63;;;34.60;35.70;;;;;;5117955;27;21034;-76
2023/06/12 12:11:18;;;;;;;3.60;3.40;;;35.20;34.70;;;;;;5121267;27;20727;-74
2023/06/12 12:13:49;;;;;;;3.50;3.30;;;35.10;35.10;;;;;;5121602;27;20651;-73
2023/06/12 12:16:22;;;;;;;3.93;3.63;;;35.10;33.30;;;;;;5118816;27;20654;-74
2023/06/12 12:18:49;;;;;;;4.37;3.40;;;34.50;34.50;;;;;;5117961;27;20622;-76
2023/06/12 12:21:17;;;;;;;4.00;3.60;;;34.70;35.00;;;;;;5119765;27;20644;-74
2023/06/12 12:23:44;;;;;;;3.37;3.17;;;35.40;35.10;;;;;;5122220;27;21126;-74
2023/06/12 12:26:12;;;;;;;3.60;3.40;;;35.50;34.40;;;;;;5120230;27;20647;-75
2023/06/12 12:28:39;;;;;;;3.67;3.37;;;35.60;34.10;;;;;;5107333;27;21175;-74
2023/06/12 12:31:07;;;;;;;3.67;3.40;;;36.20;33.00;;;;;;5093482;28;20663;-74
2023/06/12 12:33:35;;;;;;;4.20;3.90;;;36.90;32.30;;;;;;5108691;27;20754;-74
2023/06/12 12:36:02;;;;;;;4.00;3.70;;;37.10;32.60;;;;;;5118317;27;20308;-75
2023/06/12 12:38:29;;;;;;;3.70;3.40;;;37.60;31.90;;;;;;5118407;27;20277;-73
2023/06/12 12:40:56;;;;;;;4.00;3.60;;;37.80;31.20;;;;;;5120751;27;20214;-74
2023/06/12 12:43:23;;;;;;;3.40;3.10;;;36.70;30.60;;;;;;5114047;27;20196;-74
2023/06/12 12:45:49;;;;;;;3.63;3.33;;;37.20;31.80;;;;;;5109059;27;20218;-74
2023/06/12 12:48:16;;;;;;;3.53;3.23;;;37.30;31.60;;;;;;5117392;27;20718;-74
2023/06/12 12:50:45;;;;;;;3.87;3.63;;;37.60;30.60;;;;;;5118785;27;20226;-74
2023/06/12 12:53:11;;;;;;;4.10;3.80;;;37.70;30.00;;;;;;5120441;27;20549;-74